Time;durP1;ratioP1;P1;durP2;ratioP2;P2;SDS_P1;SDS_P2;PMS_P1;PMS_P2;Temp;Humidity;BMP_temperature;BMP_pressure;BME280_temperature;BME280_humidity;BME280_pressure;Samples;Min_cycle;Max_cycle;Signal;HPM_P1;HPM_P2
2022/12/29 00:01:55;;;;;;;;;;;19.00;44.10;;;;;;5008234;28;19976;-66
2022/12/29 00:04:21;;;;;;;;;;;19.00;44.10;;;;;;5011649;28;19933;-66
2022/12/29 00:06:49;;;;;;;;;;;18.90;44.10;;;;;;5012836;28;19975;-66
2022/12/29 00:09:16;;;;;;;;;;;18.90;44.10;;;;;;5012840;28;19975;-66
2022/12/29 00:11:43;;;;;;;;;;;18.90;44.10;;;;;;5013106;28;19921;-66
2022/12/29 00:16:55;;;;;;;;;;;18.90;44.20;;;;;;5009336;28;19928;-67
2022/12/29 00:35:54;;;;;;;;;;;18.80;44.30;;;;;;5009349;28;19925;-66
2022/12/29 00:44:09;;;;;;;;;;;18.80;44.40;;;;;;5011168;28;19921;-66
2022/12/29 00:46:38;;;;;;;;;;;18.80;44.40;;;;;;5011268;28;19921;-66
2022/12/29 00:51:49;;;;;;;;;;;18.80;44.40;;;;;;5011053;28;19922;-66
2022/12/29 00:54:16;;;;;;;;;;;18.80;44.50;;;;;;5009842;28;20437;-66
2022/12/29 00:56:43;;;;;;;;;;;18.80;44.50;;;;;;5008223;28;19972;-66
2022/12/29 00:59:10;;;;;;;;;;;18.80;44.40;;;;;;5010159;28;19921;-67
2022/12/29 01:01:38;;;;;;;;;;;18.70;44.40;;;;;;5011900;28;19921;-66
2022/12/29 01:04:05;;;;;;;;;;;18.80;44.50;;;;;;5011215;28;19925;-66
2022/12/29 01:06:32;;;;;;;;;;;18.80;44.50;;;;;;5005067;28;20033;-66
2022/12/29 01:11:43;;;;;;;;;;;18.70;44.50;;;;;;5009609;28;19993;-66
2022/12/29 01:14:10;;;;;;;;;;;18.70;44.50;;;;;;5009789;28;19991;-66
2022/12/29 01:16:36;;;;;;;;;;;18.70;44.50;;;;;;5010730;28;19922;-66
2022/12/29 01:19:04;;;;;;;;;;;18.70;44.50;;;;;;5011507;28;19929;-66
2022/12/29 01:21:31;;;;;;;;;;;18.70;44.50;;;;;;5010603;28;19972;-66
2022/12/29 01:23:58;;;;;;;;;;;18.70;44.50;;;;;;5010207;28;19976;-67
2022/12/29 01:26:25;;;;;;;;;;;18.70;44.60;;;;;;5009098;28;19991;-66
2022/12/29 01:28:51;;;;;;;;;;;18.70;44.60;;;;;;5006438;28;19983;-66
2022/12/29 01:31:18;;;;;;;;;;;18.70;44.60;;;;;;5009416;28;19922;-66
2022/12/29 01:33:45;;;;;;;;;;;18.70;44.60;;;;;;5011170;28;19976;-66
2022/12/29 01:36:13;;;;;;;;;;;18.70;44.70;;;;;;5011165;28;19980;-66
2022/12/29 01:38:40;;;;;;;;;;;18.70;44.70;;;;;;4988830;28;20450;-66
2022/12/29 01:41:07;;;;;;;;;;;18.70;44.70;;;;;;5010191;28;19921;-67
2022/12/29 01:43:41;;;;;;;;;;;18.70;44.70;;;;;;5009563;28;19952;-66
2022/12/29 01:46:08;;;;;;;;;;;18.70;44.70;;;;;;5003697;28;19983;-67
2022/12/29 01:48:35;;;;;;;;;;;18.70;44.70;;;;;;5010187;28;19922;-67
2022/12/29 01:51:02;;;;;;;;;;;18.70;44.80;;;;;;5009634;28;19956;-67
2022/12/29 01:53:31;;;;;;;;;;;18.70;44.80;;;;;;5026368;28;19971;-67
2022/12/29 01:55:59;;;;;;;;;;;18.60;45.30;;;;;;5006490;28;19988;-66
2022/12/29 01:58:25;;;;;;;;;;;18.70;44.90;;;;;;5011343;28;19925;-67
2022/12/29 02:00:52;;;;;;;;;;;18.70;44.90;;;;;;5008298;28;19968;-67
2022/12/29 02:03:19;;;;;;;;;;;18.70;45.00;;;;;;5021619;28;19972;-67
2022/12/29 02:05:47;;;;;;;;;;;18.70;44.90;;;;;;5010254;28;20024;-66
2022/12/29 02:08:13;;;;;;;;;;;18.60;44.80;;;;;;5007668;28;19921;-67
2022/12/29 02:10:42;;;;;;;;;;;18.60;44.90;;;;;;5009340;28;20398;-67
2022/12/29 02:13:08;;;;;;;;;;;18.60;44.90;;;;;;5009153;28;19925;-66
2022/12/29 02:15:36;;;;;;;;;;;18.60;44.90;;;;;;5009360;28;19968;-66
2022/12/29 02:18:10;;;;;;;;;;;18.60;44.90;;;;;;5008805;28;19921;-66
2022/12/29 02:20:48;;;;;;;;;;;18.60;44.90;;;;;;5009235;28;19925;-66
2022/12/29 02:23:33;;;;;;;;;;;18.60;44.90;;;;;;5009613;28;19976;-66
2022/12/29 02:26:07;;;;;;;;;;;18.60;44.90;;;;;;5009032;28;19921;-66
2022/12/29 02:28:42;;;;;;;;;;;18.60;45.00;;;;;;5009360;28;19964;-66
2022/12/29 02:31:12;;;;;;;;;;;18.60;45.00;;;;;;5010184;28;19921;-66
2022/12/29 02:33:42;;;;;;;;;;;18.60;45.00;;;;;;5009165;28;19932;-66
2022/12/29 02:36:13;;;;;;;;;;;18.60;45.10;;;;;;5008802;28;20309;-66
2022/12/29 02:38:44;;;;;;;;;;;18.60;45.00;;;;;;5009289;28;19925;-66
2022/12/29 02:41:12;;;;;;;;;;;18.70;45.10;;;;;;5009380;28;19922;-66
2022/12/29 02:43:39;;;;;;;;;;;18.60;45.00;;;;;;5009354;28;19976;-66
2022/12/29 02:46:08;;;;;;;;;;;18.70;45.10;;;;;;5004883;28;19921;-66
2022/12/29 02:48:38;;;;;;;;;;;18.60;45.10;;;;;;5008651;28;19976;-65
2022/12/29 02:51:06;;;;;;;;;;;18.60;45.10;;;;;;5006673;28;19976;-66
2022/12/29 02:56:18;;;;;;;;;;;18.60;45.10;;;;;;5008472;28;20073;-66
2022/12/29 02:58:44;;;;;;;;;;;18.60;45.10;;;;;;5008546;28;19926;-66
2022/12/29 03:01:16;;;;;;;;;;;18.60;45.10;;;;;;5009253;28;19925;-66
2022/12/29 03:03:48;;;;;;;;;;;18.60;45.10;;;;;;5004330;28;19930;-66
2022/12/29 03:06:33;;;;;;;;;;;18.60;45.10;;;;;;5007377;28;19925;-66
2022/12/29 03:09:00;;;;;;;;;;;18.60;45.10;;;;;;5007843;28;19941;-66
2022/12/29 03:17:00;;;;;;;;;;;18.60;45.10;;;;;;5005980;28;19933;-66
2022/12/29 03:19:30;;;;;;;;;;;18.60;45.10;;;;;;5007921;28;19925;-66
2022/12/29 03:24:42;;;;;;;;;;;18.60;45.10;;;;;;5006417;28;19921;-66
2022/12/29 03:27:09;;;;;;;;;;;18.60;45.10;;;;;;5006983;28;19921;-66
2022/12/29 03:29:54;;;;;;;;;;;18.60;45.20;;;;;;5008202;28;20020;-66
2022/12/29 03:32:21;;;;;;;;;;;18.60;45.20;;;;;;5008031;28;19921;-66
2022/12/29 03:34:49;;;;;;;;;;;18.60;45.10;;;;;;5007931;28;20363;-66
2022/12/29 03:37:17;;;;;;;;;;;18.60;45.10;;;;;;5007131;28;19925;-66
2022/12/29 03:39:44;;;;;;;;;;;18.60;45.20;;;;;;5008560;28;19925;-65
2022/12/29 03:42:12;;;;;;;;;;;18.60;45.10;;;;;;5005019;28;20352;-66
2022/12/29 03:44:40;;;;;;;;;;;18.60;45.20;;;;;;5007105;28;20226;-65
2022/12/29 03:47:07;;;;;;;;;;;18.60;45.20;;;;;;5007411;28;19930;-66
2022/12/29 03:49:34;;;;;;;;;;;18.60;45.20;;;;;;5009561;28;19957;-66
2022/12/29 03:52:04;;;;;;;;;;;18.60;45.20;;;;;;5008402;28;19969;-66
2022/12/29 03:54:31;;;;;;;;;;;18.60;45.20;;;;;;5008067;28;20016;-66
2022/12/29 03:56:58;;;;;;;;;;;18.60;45.20;;;;;;5009733;28;19925;-66
2022/12/29 03:59:25;;;;;;;;;;;18.60;45.20;;;;;;5004196;28;19965;-66
2022/12/29 04:01:51;;;;;;;;;;;18.60;45.20;;;;;;4991288;28;19921;-66
2022/12/29 04:04:18;;;;;;;;;;;18.70;45.30;;;;;;5024761;28;19921;-67
2022/12/29 04:06:45;;;;;;;;;;;18.60;45.20;;;;;;5008642;28;19922;-66
2022/12/29 04:09:13;;;;;;;;;;;18.60;45.30;;;;;;5006727;28;19929;-66
2022/12/29 04:11:40;;;;;;;;;;;18.60;45.30;;;;;;5007263;28;20490;-66
2022/12/29 04:14:07;;;;;;;;;;;18.60;45.20;;;;;;5006541;28;19944;-66
2022/12/29 04:16:35;;;;;;;;;;;18.60;45.20;;;;;;5006703;28;19948;-66
2022/12/29 04:19:02;;;;;;;;;;;18.60;45.30;;;;;;5008092;28;19928;-67
2022/12/29 04:21:29;;;;;;;;;;;18.60;45.30;;;;;;5005663;28;19944;-66
2022/12/29 04:23:56;;;;;;;;;;;18.60;45.30;;;;;;5008292;28;20119;-67
2022/12/29 04:26:24;;;;;;;;;;;18.60;45.30;;;;;;5007253;28;19921;-66
2022/12/29 04:28:50;;;;;;;;;;;18.60;45.30;;;;;;5006684;28;19921;-67
2022/12/29 04:31:17;;;;;;;;;;;18.60;45.30;;;;;;5006517;28;20441;-66
2022/12/29 04:33:44;;;;;;;;;;;18.60;45.30;;;;;;5009058;28;20015;-66
2022/12/29 04:36:11;;;;;;;;;;;18.60;45.30;;;;;;5005255;28;19976;-66
2022/12/29 04:38:38;;;;;;;;;;;18.60;45.40;;;;;;5007702;28;19922;-66
2022/12/29 04:41:04;;;;;;;;;;;18.60;45.30;;;;;;5008877;28;19925;-66
2022/12/29 04:43:33;;;;;;;;;;;18.60;45.40;;;;;;5007935;28;20027;-66
2022/12/29 04:45:59;;;;;;;;;;;18.60;45.40;;;;;;5008414;28;19949;-66
2022/12/29 04:48:26;;;;;;;;;;;18.60;45.40;;;;;;5005774;28;19984;-65
2022/12/29 04:50:53;;;;;;;;;;;18.60;45.40;;;;;;5010698;28;19968;-65
2022/12/29 04:53:20;;;;;;;;;;;18.60;45.40;;;;;;5010819;28;19922;-65
2022/12/29 04:55:49;;;;;;;;;;;18.60;45.40;;;;;;5010763;28;19971;-65
2022/12/29 04:58:16;;;;;;;;;;;18.60;45.50;;;;;;5009007;28;19983;-65
2022/12/29 05:00:44;;;;;;;;;;;18.60;45.50;;;;;;5010761;28;19972;-65
2022/12/29 05:03:11;;;;;;;;;;;18.60;46.10;;;;;;5009398;28;19922;-65
2022/12/29 05:05:37;;;;;;;;;;;18.60;45.60;;;;;;5010505;28;19925;-65
2022/12/29 05:08:05;;;;;;;;;;;18.60;45.60;;;;;;5010933;28;19925;-65
2022/12/29 05:10:31;;;;;;;;;;;18.60;45.70;;;;;;5010793;28;19922;-66
2022/12/29 05:12:58;;;;;;;;;;;18.60;45.70;;;;;;5010564;28;19922;-66
2022/12/29 05:15:25;;;;;;;;;;;18.60;45.80;;;;;;5009792;28;19933;-66
2022/12/29 05:17:53;;;;;;;;;;;18.60;45.80;;;;;;5010503;28;19922;-66
2022/12/29 05:20:20;;;;;;;;;;;18.60;45.90;;;;;;5010149;28;19922;-66
2022/12/29 05:22:46;;;;;;;;;;;18.60;46.00;;;;;;5009844;28;19991;-66
2022/12/29 05:25:13;;;;;;;;;;;18.60;46.00;;;;;;5010082;28;20355;-66
2022/12/29 05:27:40;;;;;;;;;;;18.50;46.00;;;;;;5010559;28;20363;-66
2022/12/29 05:30:07;;;;;;;;;;;18.50;46.10;;;;;;5010373;28;19975;-66
2022/12/29 05:32:34;;;;;;;;;;;18.50;46.10;;;;;;5010546;28;19996;-66
2022/12/29 05:35:03;;;;;;;;;;;18.50;46.20;;;;;;5008977;28;19952;-66
2022/12/29 05:37:29;;;;;;;;;;;18.50;46.20;;;;;;5010325;28;19940;-67
2022/12/29 05:39:56;;;;;;;;;;;18.50;46.30;;;;;;5010402;28;20075;-66
2022/12/29 05:42:23;;;;;;;;;;;18.50;46.30;;;;;;5009851;28;19930;-66
2022/12/29 05:44:53;;;;;;;;;;;18.50;46.40;;;;;;5006173;28;20322;-66
2022/12/29 05:47:20;;;;;;;;;;;18.50;46.50;;;;;;5009440;28;19921;-66
2022/12/29 05:49:47;;;;;;;;;;;18.50;46.50;;;;;;5007408;28;19925;-66
2022/12/29 05:52:15;;;;;;;;;;;18.50;46.50;;;;;;5009207;28;19922;-66
2022/12/29 05:54:42;;;;;;;;;;;18.50;46.50;;;;;;5008889;28;20343;-66
2022/12/29 05:57:09;;;;;;;;;;;18.50;46.50;;;;;;5009579;28;19926;-66
2022/12/29 05:59:36;;;;;;;;;;;18.50;46.60;;;;;;5009178;28;19925;-66
2022/12/29 06:02:03;;;;;;;;;;;18.50;46.60;;;;;;5007169;28;19921;-66
2022/12/29 06:04:30;;;;;;;;;;;18.50;46.60;;;;;;4993216;28;19922;-66
2022/12/29 06:06:56;;;;;;;;;;;18.50;46.60;;;;;;5006580;28;20020;-66
2022/12/29 06:09:25;;;;;;;;;;;18.50;46.70;;;;;;5005004;28;19925;-66
2022/12/29 06:11:51;;;;;;;;;;;18.50;46.70;;;;;;5008546;28;20359;-66
2022/12/29 06:14:18;;;;;;;;;;;18.50;46.70;;;;;;5004282;28;20366;-66
2022/12/29 06:16:45;;;;;;;;;;;18.40;46.60;;;;;;5007111;28;19937;-66
2022/12/29 06:19:12;;;;;;;;;;;18.40;46.60;;;;;;5009395;28;20000;-65
2022/12/29 06:21:39;;;;;;;;;;;18.40;46.60;;;;;;5008880;28;19984;-65
2022/12/29 06:24:06;;;;;;;;;;;18.40;46.60;;;;;;5007130;28;19930;-65
2022/12/29 06:26:34;;;;;;;;;;;18.40;46.60;;;;;;5007411;28;19929;-65
2022/12/29 06:29:02;;;;;;;;;;;18.40;46.60;;;;;;5008859;28;19933;-65
2022/12/29 06:31:29;;;;;;;;;;;18.40;46.60;;;;;;5007203;28;19921;-64
2022/12/29 06:33:56;;;;;;;;;;;18.50;46.60;;;;;;5008771;28;19933;-65
2022/12/29 06:36:22;;;;;;;;;;;18.50;46.50;;;;;;5009184;28;19921;-65
2022/12/29 06:38:52;;;;;;;;;;;18.50;46.50;;;;;;5009907;28;20364;-65
2022/12/29 06:41:18;;;;;;;;;;;18.50;46.40;;;;;;5009269;28;19929;-66
2022/12/29 06:43:47;;;;;;;;;;;18.50;46.30;;;;;;5006762;28;19933;-66
2022/12/29 06:46:13;;;;;;;;;;;18.50;46.30;;;;;;5007760;28;20044;-65
2022/12/29 06:48:41;;;;;;;;;;;18.50;46.30;;;;;;5009800;28;19933;-65
2022/12/29 06:51:09;;;;;;;;;;;18.50;46.30;;;;;;5006879;28;19925;-65
2022/12/29 06:53:35;;;;;;;;;;;18.50;46.30;;;;;;5008687;28;20299;-66
2022/12/29 06:56:02;;;;;;;;;;;18.50;46.30;;;;;;5009929;28;19921;-66
2022/12/29 06:58:29;;;;;;;;;;;18.50;46.30;;;;;;5008237;28;19968;-66
2022/12/29 07:00:57;;;;;;;;;;;18.50;46.30;;;;;;5003219;28;19925;-65
2022/12/29 07:03:25;;;;;;;;;;;18.50;46.20;;;;;;5006591;28;20064;-66
2022/12/29 07:05:51;;;;;;;;;;;18.50;46.20;;;;;;5008774;28;19921;-66
2022/12/29 07:08:18;;;;;;;;;;;18.50;46.20;;;;;;5009488;28;19925;-66
2022/12/29 07:10:45;;;;;;;;;;;18.50;46.20;;;;;;5007493;28;19921;-66
2022/12/29 07:13:11;;;;;;;;;;;18.50;46.20;;;;;;5007866;28;20417;-66
2022/12/29 07:15:38;;;;;;;;;;;18.60;46.30;;;;;;5009147;28;19921;-66
2022/12/29 07:18:06;;;;;;;;;;;18.60;46.30;;;;;;5006976;28;19929;-65
2022/12/29 07:20:33;;;;;;;;;;;18.60;46.30;;;;;;5009777;28;19922;-65
2022/12/29 07:23:00;;;;;;;;;;;18.60;46.30;;;;;;5009668;28;20194;-66
2022/12/29 07:25:27;;;;;;;;;;;18.60;46.30;;;;;;5007254;28;20040;-66
2022/12/29 07:27:54;;;;;;;;;;;18.60;46.20;;;;;;5007860;28;19925;-66
2022/12/29 07:30:21;;;;;;;;;;;18.60;46.30;;;;;;5007025;28;19937;-66
2022/12/29 07:32:48;;;;;;;;;;;18.60;46.20;;;;;;5005578;28;19988;-66
2022/12/29 07:35:16;;;;;;;;;;;18.60;46.20;;;;;;5007247;28;19922;-66
2022/12/29 07:37:43;;;;;;;;;;;18.60;46.20;;;;;;5024053;28;19932;-66
2022/12/29 07:40:10;;;;;;;;;;;18.60;46.20;;;;;;5008008;28;19921;-66
2022/12/29 07:42:37;;;;;;;;;;;18.60;46.20;;;;;;5008137;28;19936;-66
2022/12/29 07:45:04;;;;;;;;;;;18.60;46.20;;;;;;5007718;28;19952;-66
2022/12/29 07:47:31;;;;;;;;;;;18.60;46.20;;;;;;5008167;28;19925;-66
2022/12/29 07:49:58;;;;;;;;;;;18.60;46.20;;;;;;5008448;28;19928;-66
2022/12/29 07:52:27;;;;;;;;;;;18.60;46.20;;;;;;4990691;28;19929;-66
2022/12/29 07:54:53;;;;;;;;;;;18.60;46.10;;;;;;5008293;28;19921;-66
2022/12/29 07:57:20;;;;;;;;;;;18.60;46.20;;;;;;5006990;28;19972;-66
2022/12/29 07:59:47;;;;;;;;;;;18.60;46.10;;;;;;5005562;28;19925;-66
2022/12/29 08:02:14;;;;;;;;;;;18.60;46.20;;;;;;5002547;28;19928;-66
2022/12/29 08:04:41;;;;;;;;;;;18.60;46.10;;;;;;5000994;28;20287;-66
2022/12/29 08:07:07;;;;;;;;;;;18.60;46.10;;;;;;4997373;28;19944;-66
2022/12/29 08:09:36;;;;;;;;;;;18.60;46.10;;;;;;5006893;28;19921;-65
2022/12/29 08:12:03;;;;;;;;;;;18.60;46.10;;;;;;5008059;28;19925;-66
2022/12/29 08:14:30;;;;;;;;;;;18.60;46.10;;;;;;5010062;28;19921;-66
2022/12/29 08:16:56;;;;;;;;;;;18.60;46.10;;;;;;5007686;28;19922;-66
2022/12/29 08:19:23;;;;;;;;;;;18.60;46.00;;;;;;4997733;28;19926;-66
2022/12/29 08:21:51;;;;;;;;;;;18.60;46.00;;;;;;5008152;28;19929;-66
2022/12/29 08:24:17;;;;;;;;;;;18.70;46.10;;;;;;5008244;28;20278;-66
2022/12/29 08:26:45;;;;;;;;;;;18.70;46.10;;;;;;5013097;28;19929;-66
2022/12/29 08:29:12;;;;;;;;;;;18.70;46.10;;;;;;5012907;28;19921;-66
2022/12/29 08:31:39;;;;;;;;;;;18.70;47.60;;;;;;5010161;28;19925;-66
2022/12/29 08:34:06;;;;;;;;;;;18.70;46.10;;;;;;5020631;28;19926;-66
2022/12/29 08:36:32;;;;;;;;;;;18.70;46.10;;;;;;5012077;28;20379;-66
2022/12/29 08:38:59;;;;;;;;;;;18.70;46.00;;;;;;5010625;28;19938;-65
2022/12/29 08:41:26;;;;;;;;;;;18.70;46.00;;;;;;5011682;28;20038;-66
2022/12/29 08:43:54;;;;;;;;;;;18.70;46.00;;;;;;5011721;28;19928;-68
2022/12/29 08:46:23;;;;;;;;;;;18.70;46.00;;;;;;5013528;28;20414;-65
2022/12/29 08:48:50;;;;;;;;;;;18.70;45.60;;;;;;5012706;28;19993;-67
2022/12/29 08:51:16;;;;;;;;;;;18.70;46.10;;;;;;5013098;28;20104;-67
2022/12/29 08:53:43;;;;;;;;;;;18.70;46.00;;;;;;5012176;28;19921;-67
2022/12/29 08:56:11;;;;;;;;;;;18.70;46.10;;;;;;5015299;28;20311;-66
2022/12/29 08:58:37;;;;;;;;;;;18.70;46.10;;;;;;5011641;28;19948;-66
2022/12/29 09:01:06;;;;;;;;;;;18.70;46.10;;;;;;5009088;28;19922;-67
2022/12/29 09:03:33;;;;;;;;;;;18.70;46.40;;;;;;4999082;28;19921;-65
2022/12/29 09:06:00;;;;;;;;;;;18.70;46.40;;;;;;5007758;28;19922;-65
2022/12/29 09:08:26;;;;;;;;;;;18.70;46.40;;;;;;5011307;28;19922;-68
2022/12/29 09:10:53;;;;;;;;;;;18.80;46.70;;;;;;5015494;28;19922;-63
2022/12/29 09:13:20;;;;;;;;;;;18.80;46.60;;;;;;5015653;28;19973;-66
2022/12/29 09:15:47;;;;;;;;;;;18.80;46.70;;;;;;5015474;28;19944;-67
2022/12/29 09:18:15;;;;;;;;;;;18.80;46.60;;;;;;5016765;28;19925;-69
2022/12/29 09:20:42;;;;;;;;;;;18.80;46.60;;;;;;5013630;28;19968;-68
2022/12/29 09:23:09;;;;;;;;;;;18.80;46.70;;;;;;5014794;28;19925;-68
2022/12/29 09:25:35;;;;;;;;;;;18.80;46.70;;;;;;5009948;28;19964;-68
2022/12/29 09:28:07;;;;;;;;;;;18.90;46.90;;;;;;5016255;28;19921;-66
2022/12/29 09:30:34;;;;;;;;;;;18.90;46.90;;;;;;5027019;28;19928;-68
2022/12/29 09:33:00;;;;;;;;;;;18.90;47.00;;;;;;5016376;28;20347;-66
2022/12/29 09:35:28;;;;;;;;;;;18.90;47.00;;;;;;5012629;28;19921;-68
2022/12/29 09:37:55;;;;;;;;;;;18.90;47.10;;;;;;5015671;28;19921;-64
2022/12/29 09:40:24;;;;;;;;;;;19.00;47.10;;;;;;5014869;28;20005;-63
2022/12/29 09:43:00;;;;;;;;;;;19.00;47.20;;;;;;4995238;28;19922;-64
2022/12/29 09:45:27;;;;;;;;;;;19.00;47.20;;;;;;5000231;28;19976;-64
2022/12/29 09:47:54;;;;;;;;;;;19.00;47.20;;;;;;5012779;28;19925;-63
2022/12/29 09:50:23;;;;;;;;;;;19.10;47.40;;;;;;5016159;28;19925;-65
2022/12/29 09:52:51;;;;;;;;;;;19.10;47.30;;;;;;5008798;28;19979;-64
2022/12/29 09:55:19;;;;;;;;;;;19.10;47.40;;;;;;5012499;28;19925;-64
2022/12/29 09:57:47;;;;;;;;;;;19.10;47.40;;;;;;5014939;28;19921;-64
2022/12/29 10:00:14;;;;;;;;;;;19.20;47.50;;;;;;5015068;28;19972;-64
2022/12/29 10:02:41;;;;;;;;;;;19.20;47.50;;;;;;5011651;28;20335;-65
2022/12/29 10:05:13;;;;;;;;;;;19.20;47.40;;;;;;5012288;28;19929;-63
2022/12/29 10:07:42;;;;;;;;;;;19.20;47.40;;;;;;4995453;28;19945;-64
2022/12/29 10:10:18;;;;;;;;;;;19.20;47.50;;;;;;5009374;28;19932;-64
2022/12/29 10:12:49;;;;;;;;;;;19.20;47.60;;;;;;5001163;28;20097;-64
2022/12/29 10:15:19;;;;;;;;;;;19.30;47.50;;;;;;5008436;28;19943;-64
2022/12/29 10:17:48;;;;;;;;;;;19.30;47.50;;;;;;5010602;28;20146;-64
2022/12/29 10:20:17;;;;;;;;;;;19.30;47.50;;;;;;5015553;28;19975;-65
2022/12/29 10:22:48;;;;;;;;;;;19.30;47.40;;;;;;5012472;28;19922;-65
2022/12/29 10:25:17;;;;;;;;;;;19.40;47.50;;;;;;5014388;28;19933;-63
2022/12/29 10:27:44;;;;;;;;;;;19.40;47.50;;;;;;5012385;28;19921;-66
2022/12/29 10:30:12;;;;;;;;;;;19.40;47.50;;;;;;5011804;28;19929;-66
2022/12/29 10:32:39;;;;;;;;;;;19.40;47.50;;;;;;5009676;28;19921;-65
2022/12/29 10:35:08;;;;;;;;;;;19.40;47.50;;;;;;5012155;28;19936;-66
2022/12/29 10:37:36;;;;;;;;;;;19.40;47.50;;;;;;5027308;28;19922;-65
2022/12/29 10:40:03;;;;;;;;;;;19.40;47.50;;;;;;5035179;28;19951;-66
2022/12/29 10:42:34;;;;;;;;;;;19.40;47.50;;;;;;5034813;28;19925;-65
2022/12/29 10:45:00;;;;;;;;;;;19.40;47.50;;;;;;5033593;28;20311;-66
2022/12/29 10:47:28;;;;;;;;;;;19.40;47.50;;;;;;5022439;28;19926;-65
2022/12/29 10:49:55;;;;;;;;;;;19.50;47.60;;;;;;5014497;28;19979;-65
2022/12/29 10:52:22;;;;;;;;;;;19.50;47.60;;;;;;5020303;28;19921;-64
2022/12/29 10:54:50;;;;;;;;;;;19.50;47.50;;;;;;5009555;28;19968;-65
2022/12/29 10:57:19;;;;;;;;;;;19.50;47.50;;;;;;5011742;28;19921;-66
2022/12/29 10:59:47;;;;;;;;;;;19.50;47.50;;;;;;5008386;28;19929;-63
2022/12/29 11:02:23;;;;;;;;;;;19.50;47.50;;;;;;5006667;28;19969;-64
2022/12/29 11:04:52;;;;;;;;;;;19.50;47.50;;;;;;4994933;28;19992;-64
2022/12/29 11:07:19;;;;;;;;;;;19.50;47.50;;;;;;4998883;28;19922;-65
2022/12/29 11:09:46;;;;;;;;;;;19.50;47.50;;;;;;5013428;28;19971;-65
2022/12/29 11:12:19;;;;;;;;;;;19.50;47.50;;;;;;5014374;28;19922;-65
2022/12/29 11:14:48;;;;;;;;;;;19.50;47.50;;;;;;5019022;28;19972;-67
2022/12/29 11:17:15;;;;;;;;;;;19.50;47.00;;;;;;5010012;28;19921;-61
2022/12/29 11:19:42;;;;;;;;;;;19.60;47.60;;;;;;5011612;28;20240;-61
2022/12/29 11:22:15;;;;;;;;;;;19.50;47.40;;;;;;5009415;28;19926;-61
2022/12/29 11:24:44;;;;;;;;;;;19.50;47.40;;;;;;5013576;28;19928;-60
2022/12/29 11:27:14;;;;;;;;;;;19.50;47.30;;;;;;5013622;28;19991;-60
2022/12/29 11:29:41;;;;;;;;;;;19.50;47.30;;;;;;5012501;28;19929;-62
2022/12/29 11:32:12;;;;;;;;;;;19.50;47.30;;;;;;5014070;28;19928;-60
2022/12/29 11:34:39;;;;;;;;;;;19.50;47.20;;;;;;5031165;28;19928;-61
2022/12/29 11:37:07;;;;;;;;;;;19.40;47.10;;;;;;5033054;28;19921;-61
2022/12/29 11:39:35;;;;;;;;;;;19.40;47.00;;;;;;5019492;28;20031;-60
2022/12/29 11:42:02;;;;;;;;;;;19.40;47.10;;;;;;5019450;28;19988;-61
2022/12/29 11:44:29;;;;;;;;;;;19.40;47.10;;;;;;5017450;28;19963;-62
2022/12/29 11:46:56;;;;;;;;;;;19.40;47.00;;;;;;5013006;28;19922;-61
2022/12/29 11:49:24;;;;;;;;;;;19.40;47.00;;;;;;5013395;28;19921;-61
2022/12/29 11:51:51;;;;;;;;;;;19.40;47.00;;;;;;5014084;28;20318;-61
2022/12/29 11:54:19;;;;;;;;;;;19.30;46.90;;;;;;5011252;28;19968;-61
2022/12/29 11:56:45;;;;;;;;;;;19.30;46.90;;;;;;5013620;28;19921;-60
2022/12/29 11:59:36;;;;;;;;;;;19.30;46.90;;;;;;5014760;28;20314;-61
2022/12/29 12:02:04;;;;;;;;;;;19.30;46.80;;;;;;5011859;28;20355;-61
2022/12/29 12:04:35;;;;;;;;;;;19.30;46.80;;;;;;5019999;28;19925;-63
2022/12/29 12:07:03;;;;;;;;;;;19.30;46.90;;;;;;5025375;28;19929;-61
2022/12/29 12:09:30;;;;;;;;;;;19.30;46.80;;;;;;5036610;28;19975;-60
2022/12/29 12:11:57;;;;;;;;;;;19.30;46.90;;;;;;5034929;28;19972;-60
2022/12/29 12:14:24;;;;;;;;;;;19.30;46.80;;;;;;5037618;28;19921;-61
2022/12/29 12:16:51;;;;;;;;;;;19.30;46.80;;;;;;5037244;28;19921;-61
2022/12/29 12:19:21;;;;;;;;;;;19.20;46.70;;;;;;5034708;28;19967;-61
2022/12/29 12:21:51;;;;;;;;;;;19.20;46.70;;;;;;5036744;28;20028;-61
2022/12/29 12:24:32;;;;;;;;;;;19.30;46.80;;;;;;5015644;28;19921;-61
2022/12/29 12:27:00;;;;;;;;;;;19.20;46.80;;;;;;5013876;28;19971;-62
2022/12/29 12:29:29;;;;;;;;;;;19.20;46.70;;;;;;5024157;28;20004;-62
2022/12/29 12:31:57;;;;;;;;;;;19.20;46.70;;;;;;5001929;28;19921;-61
2022/12/29 12:34:25;;;;;;;;;;;19.30;46.80;;;;;;5036297;28;19987;-61
2022/12/29 12:37:06;;;;;;;;;;;19.20;46.70;;;;;;5031479;28;19924;-62
2022/12/29 12:39:37;;;;;;;;;;;19.20;46.70;;;;;;5018027;28;19967;-61
2022/12/29 12:42:07;;;;;;;;;;;19.20;46.70;;;;;;5016542;28;19921;-61
2022/12/29 12:44:36;;;;;;;;;;;19.20;46.70;;;;;;5014190;28;19921;-62
2022/12/29 12:47:27;;;;;;;;;;;19.20;46.70;;;;;;5020296;28;19972;-62
2022/12/29 12:50:18;;;;;;;;;;;19.20;46.70;;;;;;5018384;28;19921;-61
2022/12/29 12:52:50;;;;;;;;;;;19.20;46.70;;;;;;4993853;28;20371;-63
2022/12/29 12:55:28;;;;;;;;;;;19.20;46.60;;;;;;5016045;28;19980;-61
2022/12/29 12:57:56;;;;;;;;;;;19.20;46.60;;;;;;5016030;28;19921;-61
2022/12/29 13:00:23;;;;;;;;;;;19.20;46.60;;;;;;5015473;28;19921;-61
2022/12/29 13:02:54;;;;;;;;;;;19.20;46.50;;;;;;5016080;28;19921;-60
2022/12/29 13:05:30;;;;;;;;;;;19.20;46.50;;;;;;5016497;28;19921;-60
2022/12/29 13:08:04;;;;;;;;;;;19.20;46.50;;;;;;5012371;28;19925;-60
2022/12/29 13:10:34;;;;;;;;;;;19.20;46.50;;;;;;5012627;28;19922;-61
2022/12/29 13:13:04;;;;;;;;;;;19.20;46.50;;;;;;5012809;28;19937;-61
2022/12/29 13:15:36;;;;;;;;;;;19.20;46.40;;;;;;5028964;28;19921;-62
2022/12/29 13:18:04;;;;;;;;;;;19.20;46.40;;;;;;5036989;28;19928;-60
2022/12/29 13:20:31;;;;;;;;;;;19.20;46.40;;;;;;5035089;28;19921;-59
2022/12/29 13:22:59;;;;;;;;;;;19.20;46.40;;;;;;5033190;28;19921;-59
2022/12/29 13:25:28;;;;;;;;;;;19.20;46.40;;;;;;5019019;28;19921;-59
2022/12/29 13:27:58;;;;;;;;;;;19.20;46.40;;;;;;5031103;28;19921;-59
2022/12/29 13:30:27;;;;;;;;;;;19.20;46.40;;;;;;5012400;28;19921;-59
2022/12/29 13:32:56;;;;;;;;;;;19.20;46.40;;;;;;5014361;28;19956;-60
2022/12/29 13:35:35;;;;;;;;;;;19.20;46.30;;;;;;5019674;28;19925;-60
2022/12/29 13:38:04;;;;;;;;;;;19.20;46.40;;;;;;5018518;28;19925;-61
2022/12/29 13:40:33;;;;;;;;;;;19.20;46.30;;;;;;5016960;28;19921;-60
2022/12/29 13:43:02;;;;;;;;;;;19.20;46.30;;;;;;5013209;28;20344;-60
2022/12/29 13:45:29;;;;;;;;;;;19.20;46.30;;;;;;5015181;28;19968;-60
2022/12/29 13:47:57;;;;;;;;;;;19.20;46.20;;;;;;5016472;28;19922;-60
2022/12/29 13:50:25;;;;;;;;;;;19.20;46.20;;;;;;5014321;28;20348;-60
2022/12/29 13:52:54;;;;;;;;;;;19.20;46.20;;;;;;5016985;28;19921;-60
2022/12/29 13:55:26;;;;;;;;;;;19.20;46.20;;;;;;5012926;28;19922;-60
2022/12/29 13:57:53;;;;;;;;;;;19.20;46.20;;;;;;5010633;28;19960;-59
2022/12/29 14:00:21;;;;;;;;;;;19.20;46.20;;;;;;5015142;28;19926;-60
2022/12/29 14:02:55;;;;;;;;;;;19.20;46.20;;;;;;5015392;28;19965;-60
2022/12/29 14:05:28;;;;;;;;;;;19.20;46.10;;;;;;5015699;28;19921;-59
2022/12/29 14:08:00;;;;;;;;;;;19.20;46.10;;;;;;5014048;28;19975;-59
2022/12/29 14:10:28;;;;;;;;;;;19.20;46.20;;;;;;5014817;28;19972;-59
2022/12/29 14:12:59;;;;;;;;;;;19.20;46.10;;;;;;5012304;28;19984;-60
2022/12/29 14:15:28;;;;;;;;;;;19.20;46.10;;;;;;5010684;28;19929;-60
2022/12/29 14:18:03;;;;;;;;;;;19.20;46.10;;;;;;5012115;28;19971;-59
2022/12/29 14:20:29;;;;;;;;;;;19.20;46.10;;;;;;5029105;28;19921;-59
2022/12/29 14:22:56;;;;;;;;;;;19.10;46.00;;;;;;5014682;28;19976;-59
2022/12/29 14:25:38;;;;;;;;;;;19.10;46.00;;;;;;5016010;28;19956;-59
2022/12/29 14:28:15;;;;;;;;;;;19.20;46.00;;;;;;5014463;28;20404;-60
2022/12/29 14:30:51;;;;;;;;;;;19.20;46.10;;;;;;5029850;28;19921;-63
2022/12/29 14:33:17;;;;;;;;;;;19.20;46.10;;;;;;5023759;28;19972;-63
2022/12/29 14:35:45;;;;;;;;;;;19.20;46.10;;;;;;5013611;28;19968;-64
2022/12/29 14:38:29;;;;;;;;;;;19.20;46.20;;;;;;5010975;28;19921;-64
2022/12/29 14:41:15;;;;;;;;;;;19.20;46.20;;;;;;5012165;28;19921;-64
2022/12/29 14:43:42;;;;;;;;;;;19.20;46.20;;;;;;5018111;28;19973;-64
2022/12/29 14:46:10;;;;;;;;;;;19.20;46.20;;;;;;5014221;28;20312;-64
2022/12/29 14:48:40;;;;;;;;;;;19.20;45.80;;;;;;5013083;28;20364;-65
2022/12/29 14:51:20;;;;;;;;;;;19.20;46.40;;;;;;5030991;28;19922;-65
2022/12/29 14:53:47;;;;;;;;;;;19.20;46.40;;;;;;5011729;28;20029;-65
2022/12/29 14:56:14;;;;;;;;;;;19.20;46.40;;;;;;5013905;28;19925;-64
2022/12/29 14:58:43;;;;;;;;;;;19.20;46.40;;;;;;5016045;28;19925;-64
2022/12/29 15:01:18;;;;;;;;;;;19.20;46.40;;;;;;5010633;28;19925;-64
2022/12/29 15:03:45;;;;;;;;;;;19.30;46.50;;;;;;5006667;28;19922;-64
2022/12/29 15:06:12;;;;;;;;;;;19.30;46.50;;;;;;5019802;28;19922;-64